sensor_id;sensor_type;location;lat;lon;timestamp;P1;durP1;ratioP1;P2;durP2;ratioP2
68608;SDS011;55581;46.718;7.690;2023-04-06T00:01:41;5.47;;;1.70;;
68608;SDS011;55581;46.718;7.690;2023-04-06T00:04:08;5.07;;;1.58;;
68608;SDS011;55581;46.718;7.690;2023-04-06T00:06:34;5.57;;;1.60;;
68608;SDS011;55581;46.718;7.690;2023-04-06T00:09:00;6.07;;;1.92;;
68608;SDS011;55581;46.718;7.690;2023-04-06T00:11:28;5.37;;;1.57;;
68608;SDS011;55581;46.718;7.690;2023-04-06T00:13:53;6.45;;;1.80;;
68608;SDS011;55581;46.718;7.690;2023-04-06T00:16:19;5.10;;;1.53;;
68608;SDS011;55581;46.718;7.690;2023-04-06T00:18:44;5.47;;;1.70;;
68608;SDS011;55581;46.718;7.690;2023-04-06T00:21:13;6.15;;;2.05;;
68608;SDS011;55581;46.718;7.690;2023-04-06T00:23:39;5.78;;;1.73;;
68608;SDS011;55581;46.718;7.690;2023-04-06T00:26:05;5.43;;;2.00;;
68608;SDS011;55581;46.718;7.690;2023-04-06T00:28:31;5.80;;;1.48;;
68608;SDS011;55581;46.718;7.690;2023-04-06T00:30:56;5.37;;;1.70;;
68608;SDS011;55581;46.718;7.690;2023-04-06T00:33:22;5.97;;;1.87;;
68608;SDS011;55581;46.718;7.690;2023-04-06T00:35:48;6.40;;;1.83;;
68608;SDS011;55581;46.718;7.690;2023-04-06T00:38:14;5.13;;;2.00;;
68608;SDS011;55581;46.718;7.690;2023-04-06T00:40:40;5.28;;;2.08;;
68608;SDS011;55581;46.718;7.690;2023-04-06T00:43:06;5.28;;;1.95;;
68608;SDS011;55581;46.718;7.690;2023-04-06T00:45:33;6.93;;;2.05;;
68608;SDS011;55581;46.718;7.690;2023-04-06T00:47:59;5.13;;;1.57;;
68608;SDS011;55581;46.718;7.690;2023-04-06T00:50:25;5.93;;;1.80;;
68608;SDS011;55581;46.718;7.690;2023-04-06T00:52:51;5.60;;;1.80;;
68608;SDS011;55581;46.718;7.690;2023-04-06T00:55:17;5.97;;;2.10;;
68608;SDS011;55581;46.718;7.690;2023-04-06T00:57:42;6.13;;;1.90;;
68608;SDS011;55581;46.718;7.690;2023-04-06T01:00:08;5.90;;;2.08;;
68608;SDS011;55581;46.718;7.690;2023-04-06T01:02:34;6.97;;;2.20;;
68608;SDS011;55581;46.718;7.690;2023-04-06T01:05:00;6.30;;;2.08;;
68608;SDS011;55581;46.718;7.690;2023-04-06T01:07:26;6.28;;;1.73;;
68608;SDS011;55581;46.718;7.690;2023-04-06T01:09:54;6.27;;;2.23;;
68608;SDS011;55581;46.718;7.690;2023-04-06T01:12:20;6.22;;;1.95;;
68608;SDS011;55581;46.718;7.690;2023-04-06T01:14:45;5.93;;;1.97;;
68608;SDS011;55581;46.718;7.690;2023-04-06T01:17:13;5.18;;;1.55;;
68608;SDS011;55581;46.718;7.690;2023-04-06T01:19:39;6.05;;;2.35;;
68608;SDS011;55581;46.718;7.690;2023-04-06T01:22:05;6.27;;;2.10;;
68608;SDS011;55581;46.718;7.690;2023-04-06T01:24:31;5.57;;;2.00;;
68608;SDS011;55581;46.718;7.690;2023-04-06T01:26:57;5.28;;;1.60;;
68608;SDS011;55581;46.718;7.690;2023-04-06T01:29:23;5.27;;;1.73;;
68608;SDS011;55581;46.718;7.690;2023-04-06T01:31:48;6.03;;;2.17;;
68608;SDS011;55581;46.718;7.690;2023-04-06T01:34:13;5.82;;;1.98;;
68608;SDS011;55581;46.718;7.690;2023-04-06T01:36:39;6.67;;;2.13;;
68608;SDS011;55581;46.718;7.690;2023-04-06T01:39:04;5.60;;;1.90;;
68608;SDS011;55581;46.718;7.690;2023-04-06T01:41:32;6.55;;;2.10;;
68608;SDS011;55581;46.718;7.690;2023-04-06T01:43:58;5.80;;;2.07;;
68608;SDS011;55581;46.718;7.690;2023-04-06T01:46:25;7.00;;;2.13;;
68608;SDS011;55581;46.718;7.690;2023-04-06T01:48:51;5.70;;;2.03;;
68608;SDS011;55581;46.718;7.690;2023-04-06T01:51:17;6.82;;;1.80;;
68608;SDS011;55581;46.718;7.690;2023-04-06T01:53:42;5.50;;;2.07;;
68608;SDS011;55581;46.718;7.690;2023-04-06T01:56:08;6.17;;;1.80;;
68608;SDS011;55581;46.718;7.690;2023-04-06T01:58:33;6.90;;;1.92;;
68608;SDS011;55581;46.718;7.690;2023-04-06T02:00:58;6.57;;;2.17;;
68608;SDS011;55581;46.718;7.690;2023-04-06T02:03:24;6.80;;;1.80;;
68608;SDS011;55581;46.718;7.690;2023-04-06T02:05:49;5.03;;;2.00;;
68608;SDS011;55581;46.718;7.690;2023-04-06T02:08:15;6.73;;;1.50;;
68608;SDS011;55581;46.718;7.690;2023-04-06T02:10:40;5.13;;;1.43;;
68608;SDS011;55581;46.718;7.690;2023-04-06T02:13:06;6.07;;;1.93;;
68608;SDS011;55581;46.718;7.690;2023-04-06T02:15:33;5.40;;;1.83;;
68608;SDS011;55581;46.718;7.690;2023-04-06T02:17:59;5.47;;;1.85;;
68608;SDS011;55581;46.718;7.690;2023-04-06T02:20:25;5.57;;;2.17;;
68608;SDS011;55581;46.718;7.690;2023-04-06T02:22:51;6.10;;;1.70;;
68608;SDS011;55581;46.718;7.690;2023-04-06T02:25:16;7.03;;;1.90;;
68608;SDS011;55581;46.718;7.690;2023-04-06T02:27:42;4.30;;;1.60;;
68608;SDS011;55581;46.718;7.690;2023-04-06T02:30:07;5.50;;;2.30;;
68608;SDS011;55581;46.718;7.690;2023-04-06T02:32:33;7.30;;;2.10;;
68608;SDS011;55581;46.718;7.690;2023-04-06T02:34:59;6.60;;;1.83;;
68608;SDS011;55581;46.718;7.690;2023-04-06T02:37:25;6.38;;;1.92;;
68608;SDS011;55581;46.718;7.690;2023-04-06T02:39:53;4.80;;;1.57;;
68608;SDS011;55581;46.718;7.690;2023-04-06T02:42:18;6.07;;;1.98;;
68608;SDS011;55581;46.718;7.690;2023-04-06T02:44:44;4.87;;;2.00;;
68608;SDS011;55581;46.718;7.690;2023-04-06T02:47:09;5.77;;;2.00;;
68608;SDS011;55581;46.718;7.690;2023-04-06T02:49:35;6.45;;;2.22;;
68608;SDS011;55581;46.718;7.690;2023-04-06T02:52:01;7.57;;;2.13;;
68608;SDS011;55581;46.718;7.690;2023-04-06T02:54:27;6.78;;;2.20;;
68608;SDS011;55581;46.718;7.690;2023-04-06T02:56:52;5.20;;;2.00;;
68608;SDS011;55581;46.718;7.690;2023-04-06T02:59:18;6.05;;;1.80;;
68608;SDS011;55581;46.718;7.690;2023-04-06T03:01:46;6.18;;;2.28;;
68608;SDS011;55581;46.718;7.690;2023-04-06T03:04:11;5.30;;;2.03;;
68608;SDS011;55581;46.718;7.690;2023-04-06T03:06:37;7.00;;;1.70;;
68608;SDS011;55581;46.718;7.690;2023-04-06T03:09:03;6.00;;;2.20;;
68608;SDS011;55581;46.718;7.690;2023-04-06T03:11:28;6.47;;;2.08;;
68608;SDS011;55581;46.718;7.690;2023-04-06T03:13:54;7.47;;;2.00;;
68608;SDS011;55581;46.718;7.690;2023-04-06T03:16:20;5.03;;;1.80;;
68608;SDS011;55581;46.718;7.690;2023-04-06T03:18:45;5.07;;;1.83;;
68608;SDS011;55581;46.718;7.690;2023-04-06T03:21:12;6.03;;;1.83;;
68608;SDS011;55581;46.718;7.690;2023-04-06T03:23:38;6.13;;;2.38;;
68608;SDS011;55581;46.718;7.690;2023-04-06T03:26:03;6.73;;;2.10;;
68608;SDS011;55581;46.718;7.690;2023-04-06T03:28:29;7.77;;;1.83;;
68608;SDS011;55581;46.718;7.690;2023-04-06T03:30:54;5.77;;;2.00;;
68608;SDS011;55581;46.718;7.690;2023-04-06T03:33:20;6.40;;;2.03;;
68608;SDS011;55581;46.718;7.690;2023-04-06T03:35:45;7.93;;;2.13;;
68608;SDS011;55581;46.718;7.690;2023-04-06T03:38:11;5.70;;;2.10;;
68608;SDS011;55581;46.718;7.690;2023-04-06T03:40:36;5.93;;;2.20;;
68608;SDS011;55581;46.718;7.690;2023-04-06T03:43:04;9.43;;;1.97;;
68608;SDS011;55581;46.718;7.690;2023-04-06T03:45:29;5.72;;;2.15;;
68608;SDS011;55581;46.718;7.690;2023-04-06T03:47:55;6.28;;;2.03;;
68608;SDS011;55581;46.718;7.690;2023-04-06T03:50:21;4.73;;;1.60;;
68608;SDS011;55581;46.718;7.690;2023-04-06T03:52:46;6.40;;;2.60;;
68608;SDS011;55581;46.718;7.690;2023-04-06T03:55:12;5.85;;;2.10;;
68608;SDS011;55581;46.718;7.690;2023-04-06T03:57:37;6.50;;;1.80;;
68608;SDS011;55581;46.718;7.690;2023-04-06T04:00:03;5.83;;;2.10;;
68608;SDS011;55581;46.718;7.690;2023-04-06T04:02:29;6.80;;;2.13;;
68608;SDS011;55581;46.718;7.690;2023-04-06T04:04:54;7.97;;;2.10;;
68608;SDS011;55581;46.718;7.690;2023-04-06T04:07:20;6.33;;;2.27;;
68608;SDS011;55581;46.718;7.690;2023-04-06T04:09:45;6.78;;;1.85;;
68608;SDS011;55581;46.718;7.690;2023-04-06T04:12:10;6.77;;;2.57;;
68608;SDS011;55581;46.718;7.690;2023-04-06T04:14:36;5.27;;;2.03;;
68608;SDS011;55581;46.718;7.690;2023-04-06T04:17:01;6.47;;;2.17;;
68608;SDS011;55581;46.718;7.690;2023-04-06T04:19:27;6.40;;;2.13;;
68608;SDS011;55581;46.718;7.690;2023-04-06T04:21:52;6.60;;;2.07;;
68608;SDS011;55581;46.718;7.690;2023-04-06T04:24:18;6.93;;;2.60;;
68608;SDS011;55581;46.718;7.690;2023-04-06T04:26:43;6.53;;;2.03;;
68608;SDS011;55581;46.718;7.690;2023-04-06T04:29:09;6.03;;;2.00;;
68608;SDS011;55581;46.718;7.690;2023-04-06T04:31:35;5.63;;;2.25;;
68608;SDS011;55581;46.718;7.690;2023-04-06T04:34:00;6.10;;;2.00;;
68608;SDS011;55581;46.718;7.690;2023-04-06T04:36:26;6.43;;;2.00;;
68608;SDS011;55581;46.718;7.690;2023-04-06T04:38:52;6.03;;;2.13;;
68608;SDS011;55581;46.718;7.690;2023-04-06T04:41:17;5.93;;;2.40;;
68608;SDS011;55581;46.718;7.690;2023-04-06T04:43:43;5.38;;;1.98;;
68608;SDS011;55581;46.718;7.690;2023-04-06T04:46:09;5.65;;;1.73;;
68608;SDS011;55581;46.718;7.690;2023-04-06T04:48:35;5.67;;;1.80;;
68608;SDS011;55581;46.718;7.690;2023-04-06T04:51:01;7.88;;;2.00;;
68608;SDS011;55581;46.718;7.690;2023-04-06T04:53:27;6.32;;;2.20;;
68608;SDS011;55581;46.718;7.690;2023-04-06T04:55:52;10.97;;;3.90;;
68608;SDS011;55581;46.718;7.690;2023-04-06T04:58:17;9.90;;;2.87;;
68608;SDS011;55581;46.718;7.690;2023-04-06T05:00:45;8.27;;;2.35;;
68608;SDS011;55581;46.718;7.690;2023-04-06T05:03:21;12.07;;;2.40;;
68608;SDS011;55581;46.718;7.690;2023-04-06T05:05:48;7.25;;;2.55;;
68608;SDS011;55581;46.718;7.690;2023-04-06T05:08:13;7.30;;;2.70;;
68608;SDS011;55581;46.718;7.690;2023-04-06T05:10:39;5.85;;;2.25;;
68608;SDS011;55581;46.718;7.690;2023-04-06T05:13:07;6.35;;;2.08;;
68608;SDS011;55581;46.718;7.690;2023-04-06T05:15:32;4.80;;;1.40;;
68608;SDS011;55581;46.718;7.690;2023-04-06T05:18:03;9.32;;;3.00;;
68608;SDS011;55581;46.718;7.690;2023-04-06T05:20:29;6.97;;;2.27;;
68608;SDS011;55581;46.718;7.690;2023-04-06T05:22:54;7.50;;;2.17;;
68608;SDS011;55581;46.718;7.690;2023-04-06T05:25:20;5.83;;;1.90;;
68608;SDS011;55581;46.718;7.690;2023-04-06T05:27:45;5.80;;;1.80;;
68608;SDS011;55581;46.718;7.690;2023-04-06T05:30:11;5.75;;;1.88;;
68608;SDS011;55581;46.718;7.690;2023-04-06T05:32:36;7.23;;;1.87;;
68608;SDS011;55581;46.718;7.690;2023-04-06T05:35:02;4.37;;;1.47;;
68608;SDS011;55581;46.718;7.690;2023-04-06T05:37:27;5.18;;;1.85;;
68608;SDS011;55581;46.718;7.690;2023-04-06T05:39:53;5.87;;;2.03;;
68608;SDS011;55581;46.718;7.690;2023-04-06T05:42:18;6.33;;;2.27;;
68608;SDS011;55581;46.718;7.690;2023-04-06T05:44:44;8.15;;;3.35;;
68608;SDS011;55581;46.718;7.690;2023-04-06T05:47:10;6.68;;;2.90;;
68608;SDS011;55581;46.718;7.690;2023-04-06T05:49:35;8.20;;;2.47;;
68608;SDS011;55581;46.718;7.690;2023-04-06T05:52:01;5.00;;;2.00;;
68608;SDS011;55581;46.718;7.690;2023-04-06T05:54:29;5.47;;;1.77;;
68608;SDS011;55581;46.718;7.690;2023-04-06T05:56:55;7.75;;;1.98;;
68608;SDS011;55581;46.718;7.690;2023-04-06T05:59:22;5.60;;;1.53;;
68608;SDS011;55581;46.718;7.690;2023-04-06T06:01:49;5.95;;;2.00;;
68608;SDS011;55581;46.718;7.690;2023-04-06T06:04:15;5.87;;;1.60;;
68608;SDS011;55581;46.718;7.690;2023-04-06T06:06:40;6.47;;;2.60;;
68608;SDS011;55581;46.718;7.690;2023-04-06T06:09:05;6.27;;;1.80;;
68608;SDS011;55581;46.718;7.690;2023-04-06T06:11:31;7.57;;;2.10;;
68608;SDS011;55581;46.718;7.690;2023-04-06T06:13:58;5.32;;;1.92;;
68608;SDS011;55581;46.718;7.690;2023-04-06T06:16:23;7.53;;;2.10;;
68608;SDS011;55581;46.718;7.690;2023-04-06T06:18:48;5.47;;;2.08;;
68608;SDS011;55581;46.718;7.690;2023-04-06T06:21:14;8.97;;;1.83;;
68608;SDS011;55581;46.718;7.690;2023-04-06T06:23:42;5.55;;;1.90;;
68608;SDS011;55581;46.718;7.690;2023-04-06T06:26:08;6.45;;;1.88;;
68608;SDS011;55581;46.718;7.690;2023-04-06T06:28:33;7.00;;;2.00;;
68608;SDS011;55581;46.718;7.690;2023-04-06T06:30:59;5.50;;;1.80;;
68608;SDS011;55581;46.718;7.690;2023-04-06T06:33:26;7.25;;;1.90;;
68608;SDS011;55581;46.718;7.690;2023-04-06T06:35:53;5.43;;;2.43;;
68608;SDS011;55581;46.718;7.690;2023-04-06T06:38:19;5.75;;;2.30;;
68608;SDS011;55581;46.718;7.690;2023-04-06T06:40:45;7.20;;;1.90;;
68608;SDS011;55581;46.718;7.690;2023-04-06T06:43:11;6.90;;;2.30;;
68608;SDS011;55581;46.718;7.690;2023-04-06T06:45:38;6.60;;;2.45;;
68608;SDS011;55581;46.718;7.690;2023-04-06T06:48:04;6.67;;;2.00;;
68608;SDS011;55581;46.718;7.690;2023-04-06T06:50:29;6.90;;;1.90;;
68608;SDS011;55581;46.718;7.690;2023-04-06T06:52:55;4.90;;;1.77;;
68608;SDS011;55581;46.718;7.690;2023-04-06T06:55:20;5.80;;;2.40;;
68608;SDS011;55581;46.718;7.690;2023-04-06T06:57:46;5.53;;;2.17;;
68608;SDS011;55581;46.718;7.690;2023-04-06T07:00:12;5.55;;;2.05;;
68608;SDS011;55581;46.718;7.690;2023-04-06T07:02:41;5.05;;;1.98;;
68608;SDS011;55581;46.718;7.690;2023-04-06T07:05:07;5.87;;;1.80;;
68608;SDS011;55581;46.718;7.690;2023-04-06T07:07:33;7.00;;;2.42;;
68608;SDS011;55581;46.718;7.690;2023-04-06T07:09:59;4.70;;;1.80;;
68608;SDS011;55581;46.718;7.690;2023-04-06T07:12:25;6.05;;;2.10;;
68608;SDS011;55581;46.718;7.690;2023-04-06T07:14:51;5.68;;;1.80;;
68608;SDS011;55581;46.718;7.690;2023-04-06T07:17:16;6.83;;;1.90;;
68608;SDS011;55581;46.718;7.690;2023-04-06T07:19:42;5.50;;;2.15;;
68608;SDS011;55581;46.718;7.690;2023-04-06T07:22:08;6.57;;;2.10;;
68608;SDS011;55581;46.718;7.690;2023-04-06T07:24:33;7.33;;;1.90;;
68608;SDS011;55581;46.718;7.690;2023-04-06T07:26:59;5.60;;;2.00;;
68608;SDS011;55581;46.718;7.690;2023-04-06T07:29:25;6.03;;;1.67;;
68608;SDS011;55581;46.718;7.690;2023-04-06T07:31:51;5.72;;;2.03;;
68608;SDS011;55581;46.718;7.690;2023-04-06T07:34:17;6.13;;;2.53;;
68608;SDS011;55581;46.718;7.690;2023-04-06T07:36:42;5.75;;;2.08;;
68608;SDS011;55581;46.718;7.690;2023-04-06T07:39:07;5.27;;;2.43;;
68608;SDS011;55581;46.718;7.690;2023-04-06T07:41:34;5.13;;;2.20;;
68608;SDS011;55581;46.718;7.690;2023-04-06T07:44:05;6.33;;;2.40;;
68608;SDS011;55581;46.718;7.690;2023-04-06T07:46:33;7.45;;;2.60;;
68608;SDS011;55581;46.718;7.690;2023-04-06T07:48:59;6.05;;;2.58;;
68608;SDS011;55581;46.718;7.690;2023-04-06T07:51:27;7.00;;;2.67;;
68608;SDS011;55581;46.718;7.690;2023-04-06T07:53:53;6.90;;;2.63;;
68608;SDS011;55581;46.718;7.690;2023-04-06T07:56:19;4.97;;;1.93;;
68608;SDS011;55581;46.718;7.690;2023-04-06T07:58:45;5.70;;;2.53;;
68608;SDS011;55581;46.718;7.690;2023-04-06T08:01:11;4.97;;;2.10;;
68608;SDS011;55581;46.718;7.690;2023-04-06T08:03:36;5.43;;;2.47;;
68608;SDS011;55581;46.718;7.690;2023-04-06T08:06:02;5.60;;;2.00;;
68608;SDS011;55581;46.718;7.690;2023-04-06T08:08:28;5.30;;;2.33;;
68608;SDS011;55581;46.718;7.690;2023-04-06T08:10:56;7.63;;;2.28;;
68608;SDS011;55581;46.718;7.690;2023-04-06T08:13:22;5.40;;;2.60;;
68608;SDS011;55581;46.718;7.690;2023-04-06T08:15:51;6.73;;;2.20;;
68608;SDS011;55581;46.718;7.690;2023-04-06T08:18:18;7.28;;;2.70;;
68608;SDS011;55581;46.718;7.690;2023-04-06T08:20:44;5.85;;;2.70;;
68608;SDS011;55581;46.718;7.690;2023-04-06T08:23:10;5.00;;;2.33;;
68608;SDS011;55581;46.718;7.690;2023-04-06T08:25:36;7.47;;;2.60;;
68608;SDS011;55581;46.718;7.690;2023-04-06T08:28:02;5.78;;;2.63;;
68608;SDS011;55581;46.718;7.690;2023-04-06T08:30:28;9.77;;;3.17;;
68608;SDS011;55581;46.718;7.690;2023-04-06T08:32:57;6.57;;;3.00;;
68608;SDS011;55581;46.718;7.690;2023-04-06T08:35:26;6.40;;;2.55;;
68608;SDS011;55581;46.718;7.690;2023-04-06T08:37:52;8.95;;;2.50;;
68608;SDS011;55581;46.718;7.690;2023-04-06T08:40:17;7.50;;;2.37;;
68608;SDS011;55581;46.718;7.690;2023-04-06T08:42:44;6.47;;;2.67;;
68608;SDS011;55581;46.718;7.690;2023-04-06T08:45:16;5.43;;;2.30;;
68608;SDS011;55581;46.718;7.690;2023-04-06T08:47:42;6.40;;;2.70;;
68608;SDS011;55581;46.718;7.690;2023-04-06T08:50:09;6.70;;;2.90;;
68608;SDS011;55581;46.718;7.690;2023-04-06T08:52:37;9.70;;;3.38;;
68608;SDS011;55581;46.718;7.690;2023-04-06T08:55:04;7.70;;;2.58;;
68608;SDS011;55581;46.718;7.690;2023-04-06T08:57:30;7.13;;;2.25;;
68608;SDS011;55581;46.718;7.690;2023-04-06T09:00:00;6.15;;;2.28;;
68608;SDS011;55581;46.718;7.690;2023-04-06T09:02:26;5.67;;;1.97;;
68608;SDS011;55581;46.718;7.690;2023-04-06T09:04:55;6.38;;;2.17;;
68608;SDS011;55581;46.718;7.690;2023-04-06T09:07:21;6.18;;;2.25;;
68608;SDS011;55581;46.718;7.690;2023-04-06T09:09:47;6.10;;;2.37;;
68608;SDS011;55581;46.718;7.690;2023-04-06T09:12:23;4.97;;;2.20;;
68608;SDS011;55581;46.718;7.690;2023-04-06T09:14:55;5.35;;;2.20;;
68608;SDS011;55581;46.718;7.690;2023-04-06T09:17:25;6.80;;;2.72;;
68608;SDS011;55581;46.718;7.690;2023-04-06T09:19:57;5.63;;;2.20;;
68608;SDS011;55581;46.718;7.690;2023-04-06T09:22:23;7.82;;;2.55;;
68608;SDS011;55581;46.718;7.690;2023-04-06T09:24:54;6.65;;;2.67;;
68608;SDS011;55581;46.718;7.690;2023-04-06T09:27:29;6.13;;;2.20;;
68608;SDS011;55581;46.718;7.690;2023-04-06T09:30:11;5.97;;;2.38;;
68608;SDS011;55581;46.718;7.690;2023-04-06T09:32:54;7.47;;;3.15;;
68608;SDS011;55581;46.718;7.690;2023-04-06T09:35:24;6.43;;;2.35;;
68608;SDS011;55581;46.718;7.690;2023-04-06T09:37:52;6.47;;;2.47;;
68608;SDS011;55581;46.718;7.690;2023-04-06T09:40:19;6.57;;;2.67;;
68608;SDS011;55581;46.718;7.690;2023-04-06T09:42:45;8.13;;;3.15;;
68608;SDS011;55581;46.718;7.690;2023-04-06T09:45:12;5.70;;;2.55;;
68608;SDS011;55581;46.718;7.690;2023-04-06T09:47:39;5.70;;;2.50;;
68608;SDS011;55581;46.718;7.690;2023-04-06T09:50:07;6.35;;;2.55;;
68608;SDS011;55581;46.718;7.690;2023-04-06T09:52:50;6.40;;;2.47;;
68608;SDS011;55581;46.718;7.690;2023-04-06T09:58:16;6.38;;;2.90;;
68608;SDS011;55581;46.718;7.690;2023-04-06T10:00:52;6.60;;;2.78;;
68608;SDS011;55581;46.718;7.690;2023-04-06T10:03:45;6.25;;;2.80;;
68608;SDS011;55581;46.718;7.690;2023-04-06T10:06:18;6.07;;;2.90;;
68608;SDS011;55581;46.718;7.690;2023-04-06T10:08:47;5.43;;;2.40;;
68608;SDS011;55581;46.718;7.690;2023-04-06T10:11:15;5.32;;;2.58;;
68608;SDS011;55581;46.718;7.690;2023-04-06T10:13:41;5.83;;;2.50;;
68608;SDS011;55581;46.718;7.690;2023-04-06T10:16:07;6.87;;;2.77;;
68608;SDS011;55581;46.718;7.690;2023-04-06T10:18:34;7.95;;;3.20;;
68608;SDS011;55581;46.718;7.690;2023-04-06T10:26:12;7.18;;;3.70;;
68608;SDS011;55581;46.718;7.690;2023-04-06T10:28:40;7.18;;;3.25;;
68608;SDS011;55581;46.718;7.690;2023-04-06T10:31:07;7.03;;;3.28;;
68608;SDS011;55581;46.718;7.690;2023-04-06T10:33:32;6.63;;;3.33;;
68608;SDS011;55581;46.718;7.690;2023-04-06T10:36:08;7.35;;;3.72;;
68608;SDS011;55581;46.718;7.690;2023-04-06T10:38:38;7.00;;;2.88;;
68608;SDS011;55581;46.718;7.690;2023-04-06T10:41:05;7.07;;;3.40;;
68608;SDS011;55581;46.718;7.690;2023-04-06T10:43:35;8.00;;;3.50;;
68608;SDS011;55581;46.718;7.690;2023-04-06T10:46:04;8.70;;;4.05;;
68608;SDS011;55581;46.718;7.690;2023-04-06T10:51:07;8.77;;;3.88;;
68608;SDS011;55581;46.718;7.690;2023-04-06T10:53:37;11.10;;;4.38;;
68608;SDS011;55581;46.718;7.690;2023-04-06T10:56:03;8.77;;;3.70;;
68608;SDS011;55581;46.718;7.690;2023-04-06T10:58:29;8.43;;;4.35;;
68608;SDS011;55581;46.718;7.690;2023-04-06T11:00:55;10.60;;;3.95;;
68608;SDS011;55581;46.718;7.690;2023-04-06T11:03:21;8.80;;;3.97;;
68608;SDS011;55581;46.718;7.690;2023-04-06T11:05:49;8.18;;;3.42;;
68608;SDS011;55581;46.718;7.690;2023-04-06T11:08:25;8.63;;;3.60;;
68608;SDS011;55581;46.718;7.690;2023-04-06T11:11:04;8.43;;;4.28;;
68608;SDS011;55581;46.718;7.690;2023-04-06T11:16:32;9.10;;;3.27;;
68608;SDS011;55581;46.718;7.690;2023-04-06T11:19:02;9.52;;;3.70;;
68608;SDS011;55581;46.718;7.690;2023-04-06T11:21:39;8.30;;;3.80;;
68608;SDS011;55581;46.718;7.690;2023-04-06T11:24:21;10.43;;;4.95;;
68608;SDS011;55581;46.718;7.690;2023-04-06T11:26:51;8.80;;;4.43;;
68608;SDS011;55581;46.718;7.690;2023-04-06T11:29:19;8.13;;;3.40;;
68608;SDS011;55581;46.718;7.690;2023-04-06T11:31:50;7.70;;;3.60;;
68608;SDS011;55581;46.718;7.690;2023-04-06T11:34:20;9.48;;;3.53;;
68608;SDS011;55581;46.718;7.690;2023-04-06T11:36:48;9.82;;;3.92;;
68608;SDS011;55581;46.718;7.690;2023-04-06T11:39:18;7.68;;;3.88;;
68608;SDS011;55581;46.718;7.690;2023-04-06T11:41:51;8.50;;;4.00;;
68608;SDS011;55581;46.718;7.690;2023-04-06T11:47:04;8.02;;;4.28;;
68608;SDS011;55581;46.718;7.690;2023-04-06T11:49:33;8.32;;;4.10;;
68608;SDS011;55581;46.718;7.690;2023-04-06T11:52:02;9.02;;;4.10;;
68608;SDS011;55581;46.718;7.690;2023-04-06T11:54:34;8.27;;;4.40;;
68608;SDS011;55581;46.718;7.690;2023-04-06T11:57:02;9.73;;;4.57;;
68608;SDS011;55581;46.718;7.690;2023-04-06T11:59:29;9.60;;;4.55;;
68608;SDS011;55581;46.718;7.690;2023-04-06T12:01:57;11.93;;;3.92;;
68608;SDS011;55581;46.718;7.690;2023-04-06T12:04:23;9.50;;;4.23;;
68608;SDS011;55581;46.718;7.690;2023-04-06T12:06:49;8.45;;;3.83;;
68608;SDS011;55581;46.718;7.690;2023-04-06T12:09:14;7.73;;;3.60;;
68608;SDS011;55581;46.718;7.690;2023-04-06T12:11:41;6.95;;;3.40;;
68608;SDS011;55581;46.718;7.690;2023-04-06T12:14:07;10.73;;;3.73;;
68608;SDS011;55581;46.718;7.690;2023-04-06T12:16:33;8.68;;;4.38;;
68608;SDS011;55581;46.718;7.690;2023-04-06T12:18:59;7.50;;;3.88;;
68608;SDS011;55581;46.718;7.690;2023-04-06T12:21:26;7.80;;;4.05;;
68608;SDS011;55581;46.718;7.690;2023-04-06T12:23:52;8.40;;;3.93;;
68608;SDS011;55581;46.718;7.690;2023-04-06T12:26:18;7.47;;;3.67;;
68608;SDS011;55581;46.718;7.690;2023-04-06T12:28:43;6.77;;;3.50;;
68608;SDS011;55581;46.718;7.690;2023-04-06T12:31:17;7.25;;;3.65;;
68608;SDS011;55581;46.718;7.690;2023-04-06T12:33:43;8.82;;;4.20;;
68608;SDS011;55581;46.718;7.690;2023-04-06T12:36:14;8.97;;;4.23;;
68608;SDS011;55581;46.718;7.690;2023-04-06T12:38:43;8.95;;;3.97;;
68608;SDS011;55581;46.718;7.690;2023-04-06T12:41:10;7.78;;;4.15;;
68608;SDS011;55581;46.718;7.690;2023-04-06T12:43:36;7.20;;;3.70;;
68608;SDS011;55581;46.718;7.690;2023-04-06T12:46:02;8.07;;;3.87;;
68608;SDS011;55581;46.718;7.690;2023-04-06T12:48:27;7.35;;;3.55;;
68608;SDS011;55581;46.718;7.690;2023-04-06T12:50:54;8.97;;;4.20;;
68608;SDS011;55581;46.718;7.690;2023-04-06T12:53:21;8.20;;;4.20;;
68608;SDS011;55581;46.718;7.690;2023-04-06T12:55:46;7.17;;;3.83;;
68608;SDS011;55581;46.718;7.690;2023-04-06T12:58:11;7.53;;;3.77;;
68608;SDS011;55581;46.718;7.690;2023-04-06T13:00:37;7.65;;;3.65;;
68608;SDS011;55581;46.718;7.690;2023-04-06T13:03:03;10.43;;;4.03;;
68608;SDS011;55581;46.718;7.690;2023-04-06T13:05:28;8.68;;;3.88;;
68608;SDS011;55581;46.718;7.690;2023-04-06T13:07:54;8.33;;;3.83;;
68608;SDS011;55581;46.718;7.690;2023-04-06T13:10:19;8.47;;;3.93;;
68608;SDS011;55581;46.718;7.690;2023-04-06T13:12:45;6.35;;;3.00;;
68608;SDS011;55581;46.718;7.690;2023-04-06T13:15:15;6.60;;;2.73;;
68608;SDS011;55581;46.718;7.690;2023-04-06T13:17:40;7.50;;;3.45;;
68608;SDS011;55581;46.718;7.690;2023-04-06T13:20:06;7.03;;;3.37;;
68608;SDS011;55581;46.718;7.690;2023-04-06T13:22:34;6.95;;;3.53;;
68608;SDS011;55581;46.718;7.690;2023-04-06T13:25:00;6.45;;;2.85;;
68608;SDS011;55581;46.718;7.690;2023-04-06T13:27:25;9.00;;;3.17;;
68608;SDS011;55581;46.718;7.690;2023-04-06T13:29:52;6.10;;;2.97;;
68608;SDS011;55581;46.718;7.690;2023-04-06T13:32:18;6.68;;;2.78;;
68608;SDS011;55581;46.718;7.690;2023-04-06T13:34:43;6.60;;;2.77;;
68608;SDS011;55581;46.718;7.690;2023-04-06T13:37:11;5.47;;;2.70;;
68608;SDS011;55581;46.718;7.690;2023-04-06T13:39:38;5.15;;;2.60;;
68608;SDS011;55581;46.718;7.690;2023-04-06T13:42:03;7.23;;;2.57;;
68608;SDS011;55581;46.718;7.690;2023-04-06T13:44:29;6.40;;;2.75;;
68608;SDS011;55581;46.718;7.690;2023-04-06T13:46:55;6.60;;;2.70;;
68608;SDS011;55581;46.718;7.690;2023-04-06T13:49:21;6.50;;;2.65;;
68608;SDS011;55581;46.718;7.690;2023-04-06T13:51:47;8.18;;;4.30;;
68608;SDS011;55581;46.718;7.690;2023-04-06T13:54:13;6.33;;;2.67;;
68608;SDS011;55581;46.718;7.690;2023-04-06T13:56:38;6.20;;;2.70;;
68608;SDS011;55581;46.718;7.690;2023-04-06T13:59:04;7.93;;;2.40;;
68608;SDS011;55581;46.718;7.690;2023-04-06T14:01:29;5.75;;;2.47;;
68608;SDS011;55581;46.718;7.690;2023-04-06T14:03:55;6.70;;;2.10;;
68608;SDS011;55581;46.718;7.690;2023-04-06T14:06:20;5.53;;;2.57;;
68608;SDS011;55581;46.718;7.690;2023-04-06T14:08:46;4.72;;;2.15;;
68608;SDS011;55581;46.718;7.690;2023-04-06T14:11:12;5.53;;;2.23;;
68608;SDS011;55581;46.718;7.690;2023-04-06T14:13:38;5.95;;;2.15;;
68608;SDS011;55581;46.718;7.690;2023-04-06T14:16:04;4.97;;;1.80;;
68608;SDS011;55581;46.718;7.690;2023-04-06T14:18:30;5.40;;;2.03;;
68608;SDS011;55581;46.718;7.690;2023-04-06T14:20:59;6.50;;;2.10;;
68608;SDS011;55581;46.718;7.690;2023-04-06T14:23:25;5.10;;;1.60;;
68608;SDS011;55581;46.718;7.690;2023-04-06T14:26:00;5.15;;;1.75;;
68608;SDS011;55581;46.718;7.690;2023-04-06T14:28:30;4.43;;;1.67;;
68608;SDS011;55581;46.718;7.690;2023-04-06T14:31:00;4.43;;;1.80;;
68608;SDS011;55581;46.718;7.690;2023-04-06T14:33:27;4.28;;;1.60;;
68608;SDS011;55581;46.718;7.690;2023-04-06T14:35:53;4.20;;;1.57;;
68608;SDS011;55581;46.718;7.690;2023-04-06T14:38:18;3.70;;;1.40;;
68608;SDS011;55581;46.718;7.690;2023-04-06T14:40:44;4.38;;;1.20;;
68608;SDS011;55581;46.718;7.690;2023-04-06T14:43:09;4.10;;;1.43;;
68608;SDS011;55581;46.718;7.690;2023-04-06T14:45:37;4.50;;;1.70;;
68608;SDS011;55581;46.718;7.690;2023-04-06T14:48:04;4.70;;;1.33;;
68608;SDS011;55581;46.718;7.690;2023-04-06T14:50:31;3.90;;;1.40;;
68608;SDS011;55581;46.718;7.690;2023-04-06T14:52:58;3.53;;;1.10;;
68608;SDS011;55581;46.718;7.690;2023-04-06T14:55:23;3.88;;;1.40;;
68608;SDS011;55581;46.718;7.690;2023-04-06T14:57:49;3.87;;;1.07;;
68608;SDS011;55581;46.718;7.690;2023-04-06T15:00:15;3.90;;;1.00;;
68608;SDS011;55581;46.718;7.690;2023-04-06T15:02:41;3.70;;;1.13;;